Terminal Aerodrome Forecast
Issued by NWS

Home | Current Version | Previous Version | Graphics & Text | Print | Product List | Glossary On
Versions: 1 2 3 4 5 6 7 8 9 10 11 12 13 14 15 16 17 18 19
000
FTUS43 KMPX 211720
TAFRWF
TAF
KRWF 211720Z 2118/2218 22009KT P6SM SKC
     FM220000 16005KT P6SM SKC
     FM221100 12005KT P6SM OVC100
     FM221400 12007KT 5SM -SN OVC025
     FM221600 13008KT 2SM -SN OVC015=

USA.gov is the U.S. government's official web portal to all federal, state and local government web resources and services.